createdAt,value
2023-04-23T12:29:10.986Z,22.55
2023-04-23T12:31:11.286Z,22.65
2023-04-23T12:33:11.568Z,22.30
2023-04-23T12:35:11.862Z,22.41
2023-04-23T12:37:12.170Z,22.41
2023-04-23T12:39:12.453Z,22.17
2023-04-23T12:41:17.748Z,22.00
2023-04-23T12:43:18.060Z,22.00
2023-04-23T12:45:18.404Z,22.22
2023-04-23T12:47:18.688Z,22.53
2023-04-23T12:49:19.008Z,22.81
2023-04-23T12:51:19.323Z,22.65
2023-04-23T12:53:19.570Z,22.87
2023-04-23T12:55:19.926Z,23.24
2023-04-23T12:57:21.216Z,23.41
2023-04-23T12:59:21.527Z,23.65
2023-04-23T13:01:21.878Z,23.62
2023-04-23T13:03:22.228Z,23.25
2023-04-23T13:05:22.593Z,23.47
2023-04-23T13:07:22.891Z,23.59
2023-04-23T13:09:24.267Z,23.87
2023-04-23T13:11:26.224Z,24.11
2023-04-23T13:13:26.582Z,24.20
2023-04-23T13:15:27.302Z,24.28
2023-04-23T13:17:27.716Z,24.53
2023-04-23T13:19:28.005Z,24.60
2023-04-23T13:21:33.144Z,24.53
2023-04-23T13:23:33.484Z,24.55
2023-04-23T13:25:34.090Z,24.80
2023-04-23T13:27:34.482Z,24.35
2023-04-23T13:29:34.756Z,23.98
2023-04-23T13:31:35.480Z,24.26
2023-04-23T13:33:36.016Z,24.76
2023-04-23T13:35:36.387Z,24.61
2023-04-23T13:37:36.681Z,23.93
2023-04-23T13:39:38.741Z,23.61
2023-04-23T13:41:40.275Z,23.66
2023-04-23T13:43:40.576Z,23.39
2023-04-23T13:45:40.991Z,22.98
2023-04-23T13:47:41.396Z,22.45
2023-04-23T13:49:42.022Z,22.54
2023-04-23T13:51:42.510Z,22.96
2023-04-23T13:53:42.876Z,23.43
2023-04-23T13:55:43.167Z,23.77
2023-04-23T13:57:43.450Z,23.41
2023-04-23T13:59:44.002Z,23.17
2023-04-23T14:01:44.519Z,23.10
2023-04-23T14:03:44.901Z,23.15
2023-04-23T14:05:45.144Z,23.31
2023-04-23T14:07:45.495Z,23.25
2023-04-23T14:09:45.872Z,23.48
2023-04-23T14:11:46.151Z,23.46
2023-04-23T14:13:46.486Z,23.48
2023-04-23T14:15:46.806Z,23.58
2023-04-23T14:17:47.132Z,23.32
2023-04-23T14:19:47.445Z,23.15
2023-04-23T14:21:47.767Z,23.12
2023-04-23T14:23:48.102Z,23.18
2023-04-23T14:25:48.361Z,23.08
2023-04-23T14:27:48.677Z,22.59
2023-04-23T14:29:49.053Z,22.44
2023-04-23T14:31:49.359Z,22.57
2023-04-23T14:33:49.636Z,22.66
2023-04-23T14:35:49.921Z,22.83
2023-04-23T14:37:50.234Z,22.85
2023-04-23T14:39:50.508Z,22.99
2023-04-23T14:41:50.872Z,23.09
2023-04-23T14:43:51.174Z,22.73
2023-04-23T14:45:51.555Z,22.73
2023-04-23T14:47:51.851Z,22.44
2023-04-23T14:49:52.159Z,22.33
2023-04-23T14:51:52.472Z,22.28
2023-04-23T14:53:54.722Z,22.17
2023-04-23T14:55:56.792Z,22.17
2023-04-23T14:57:57.119Z,22.13
2023-04-23T14:59:57.499Z,21.98
2023-04-23T15:01:57.809Z,21.88
2023-04-23T15:03:58.163Z,21.83
2023-04-23T15:05:58.506Z,21.77
2023-04-23T15:07:58.769Z,21.62
2023-04-23T15:09:59.087Z,21.52
2023-04-23T15:11:59.384Z,21.48
2023-04-23T15:13:59.679Z,21.35
2023-04-23T15:16:00.050Z,21.35
2023-04-23T15:18:00.502Z,21.45
2023-04-23T15:20:00.818Z,21.51
2023-04-23T15:22:01.114Z,21.48
2023-04-23T15:24:01.400Z,21.48
2023-04-23T15:26:01.699Z,21.52
2023-04-23T15:28:02.063Z,21.67
2023-04-23T15:30:02.347Z,21.88
2023-04-23T15:32:02.704Z,21.99
2023-04-23T15:34:03.084Z,22.17
2023-04-23T15:36:03.409Z,22.11
2023-04-23T15:38:03.674Z,22.06
2023-04-23T15:40:04.134Z,22.06
2023-04-23T15:42:04.741Z,21.76
2023-04-23T15:44:05.567Z,21.45
2023-04-23T15:46:05.961Z,21.20
2023-04-23T15:48:06.645Z,21.02
2023-04-23T15:50:12.344Z,20.93
2023-04-23T15:52:12.613Z,20.90
2023-04-23T15:54:12.931Z,20.80
2023-04-23T15:56:13.315Z,20.66
2023-04-23T15:58:13.616Z,20.52
2023-04-23T16:00:14.390Z,20.39
2023-04-23T16:02:14.719Z,20.18
2023-04-23T16:04:15.146Z,20.03
2023-04-23T16:06:15.674Z,19.88
2023-04-23T16:08:15.994Z,19.54
2023-04-23T16:10:16.254Z,19.11
2023-04-23T16:12:16.594Z,18.47
2023-04-23T16:14:16.987Z,17.95
2023-04-23T16:16:17.518Z,16.99
2023-04-23T16:18:17.900Z,16.04
2023-04-23T16:20:18.187Z,15.04
2023-04-23T16:22:18.510Z,14.29
2023-04-23T16:24:18.841Z,13.90
2023-04-23T16:26:19.142Z,13.74
2023-04-23T16:28:19.421Z,13.62
2023-04-23T16:30:19.755Z,13.53
2023-04-23T16:32:20.093Z,13.42
2023-04-23T16:34:20.401Z,13.33
2023-04-23T16:36:20.692Z,13.22
2023-04-23T16:38:21.026Z,13.27
2023-04-23T16:40:21.331Z,13.18
2023-04-23T16:42:21.617Z,13.15
2023-04-23T16:44:21.920Z,13.22
2023-04-23T16:46:22.260Z,13.27
2023-04-23T16:48:22.589Z,13.39
2023-04-23T16:50:22.889Z,13.46
2023-04-23T16:52:23.201Z,13.56
2023-04-23T16:54:23.532Z,13.56
2023-04-23T16:56:23.802Z,13.57
2023-04-23T16:58:24.153Z,13.63
2023-04-23T17:00:24.416Z,13.59
2023-04-23T17:02:24.951Z,13.50
2023-04-23T17:04:25.437Z,13.42
2023-04-23T17:06:25.775Z,13.38
2023-04-23T17:08:26.084Z,13.39
2023-04-23T17:10:26.412Z,13.37
2023-04-23T17:12:26.738Z,13.44
2023-04-23T17:14:27.024Z,13.41
2023-04-23T17:16:27.423Z,13.27
2023-04-23T17:18:27.825Z,13.31
2023-04-23T17:20:28.081Z,13.28
2023-04-23T17:22:28.399Z,13.33
2023-04-23T17:24:28.688Z,13.30
2023-04-23T17:26:28.969Z,13.31
2023-04-23T17:28:29.306Z,13.20
2023-04-23T17:30:29.601Z,13.22
2023-04-23T17:32:29.977Z,13.22
2023-04-23T17:34:31.442Z,13.20
2023-04-23T17:36:31.823Z,13.22
2023-04-23T17:38:32.143Z,13.28
2023-04-23T17:40:32.420Z,13.30
2023-04-23T17:42:32.731Z,13.31
2023-04-23T17:44:33.013Z,13.37
2023-04-23T17:46:33.327Z,13.31
2023-04-23T17:48:33.637Z,13.28
2023-04-23T17:50:33.949Z,13.30
2023-04-23T17:52:34.266Z,13.28
2023-04-23T17:54:34.543Z,13.33
2023-04-23T17:56:34.841Z,13.30
2023-04-23T17:58:36.060Z,13.25
2023-04-23T18:00:37.813Z,13.20
2023-04-23T18:02:38.156Z,13.18
2023-04-23T18:04:38.597Z,13.16
2023-04-23T18:06:39.601Z,13.16
2023-04-23T18:08:41.911Z,13.09
2023-04-23T18:10:42.991Z,13.08
2023-04-23T18:12:43.584Z,13.04
2023-04-23T18:14:43.875Z,13.01
2023-04-23T18:16:44.251Z,12.98
2023-04-23T18:18:45.198Z,12.97
2023-04-23T18:20:45.576Z,12.95
2023-04-23T18:22:45.903Z,12.95
2023-04-23T18:24:46.233Z,12.90
2023-04-23T18:26:46.509Z,12.86
2023-04-23T18:28:46.832Z,12.83
2023-04-23T18:30:47.165Z,12.80
2023-04-23T18:32:52.351Z,12.80
2023-04-23T18:34:52.679Z,12.79
2023-04-23T18:36:52.967Z,12.72
2023-04-23T18:38:53.328Z,12.68
2023-04-23T18:40:53.733Z,12.62
2023-04-23T18:42:54.113Z,12.62
2023-04-23T18:44:55.704Z,12.58
2023-04-23T18:46:56.026Z,12.57
2023-04-23T18:48:56.325Z,12.55
2023-04-23T18:50:56.682Z,12.55
2023-04-23T18:53:05.370Z,12.50
2023-04-23T18:55:05.794Z,12.54
2023-04-23T18:57:06.263Z,12.53
2023-04-23T18:59:06.551Z,12.50
2023-04-23T19:01:06.997Z,12.50
2023-04-23T19:03:19.462Z,12.49
2023-04-23T19:05:12.597Z,12.49
2023-04-23T19:07:12.930Z,12.47
2023-04-23T19:09:13.307Z,12.47
2023-04-23T19:11:13.616Z,12.47
2023-04-23T19:13:13.947Z,12.47
2023-04-23T19:15:14.201Z,12.46
2023-04-23T19:17:15.402Z,12.46
2023-04-23T19:19:16.507Z,12.45
2023-04-23T19:21:16.852Z,12.47
2023-04-23T19:23:17.101Z,12.46
2023-04-23T19:25:17.406Z,12.47
2023-04-23T19:27:17.741Z,12.45
2023-04-23T19:29:18.277Z,12.45
2023-04-23T19:31:18.644Z,12.46
2023-04-23T19:33:18.928Z,12.45
2023-04-23T19:35:19.277Z,12.49
2023-04-23T19:37:19.566Z,12.49
2023-04-23T19:39:20.114Z,12.54
2023-04-23T19:41:20.433Z,12.64
2023-04-23T19:43:21.005Z,12.62
2023-04-23T19:45:21.278Z,12.62
2023-04-23T19:47:21.679Z,12.64
2023-04-23T19:49:21.976Z,12.65
2023-04-23T19:51:22.284Z,12.64
2023-04-23T19:53:22.845Z,12.62
2023-04-23T19:55:23.127Z,12.61
2023-04-23T19:57:23.409Z,12.60
2023-04-23T19:59:23.753Z,12.60
2023-04-23T20:01:24.145Z,12.60
2023-04-23T20:03:24.774Z,12.57
2023-04-23T20:05:25.233Z,12.55
2023-04-23T20:07:25.585Z,12.57
2023-04-23T20:09:25.906Z,12.55
2023-04-23T20:11:26.533Z,12.55
2023-04-23T20:13:26.858Z,12.54
2023-04-23T20:15:27.149Z,12.54
2023-04-23T20:17:27.607Z,12.53
2023-04-23T20:19:32.621Z,12.55
2023-04-23T20:21:32.923Z,12.58
2023-04-23T20:23:37.658Z,12.54
2023-04-23T20:25:38.094Z,12.54
2023-04-23T20:27:38.501Z,12.60
2023-04-23T20:29:38.770Z,12.55
2023-04-23T20:31:39.167Z,12.57
2023-04-23T20:33:39.463Z,12.55
2023-04-23T20:35:39.772Z,12.49
2023-04-23T20:37:40.079Z,12.45
2023-04-23T20:39:40.673Z,12.45
2023-04-23T20:41:41.072Z,12.45
2023-04-23T20:43:41.681Z,12.42
2023-04-23T20:45:42.018Z,12.42
2023-04-23T20:47:42.775Z,12.43
2023-04-23T20:49:43.468Z,12.39
2023-04-23T20:51:44.060Z,12.36
2023-04-23T20:53:44.846Z,12.32
2023-04-23T20:55:45.261Z,12.29
2023-04-23T20:57:45.680Z,12.28
2023-04-23T20:59:45.916Z,12.22
2023-04-23T21:01:46.375Z,12.18
2023-04-23T21:03:46.892Z,12.15
2023-04-23T21:05:47.230Z,12.13
2023-04-23T21:07:47.679Z,12.10
2023-04-23T21:09:47.976Z,12.06
2023-04-23T21:11:48.254Z,12.04
2023-04-23T21:13:48.565Z,12.03
2023-04-23T21:15:48.886Z,12.03
2023-04-23T21:17:49.381Z,11.95
2023-04-23T21:19:49.665Z,11.94
2023-04-23T21:21:50.031Z,11.94
2023-04-23T21:23:50.292Z,11.91
2023-04-23T21:25:50.682Z,11.86
2023-04-23T21:27:51.021Z,11.80
2023-04-23T21:29:51.358Z,11.81
2023-04-23T21:31:51.953Z,11.84
2023-04-23T21:33:52.540Z,11.86
2023-04-23T21:35:53.417Z,11.87
2023-04-23T21:37:53.766Z,11.86
2023-04-23T21:39:54.177Z,11.84
2023-04-23T21:41:54.541Z,11.88
2023-04-23T21:43:54.876Z,11.86
2023-04-23T21:45:55.192Z,11.88
2023-04-23T21:47:55.657Z,11.84
2023-04-23T21:49:55.988Z,11.81
2023-04-23T21:51:56.382Z,11.78
2023-04-23T21:53:56.782Z,11.72
2023-04-23T21:55:57.054Z,11.70
2023-04-23T21:58:06.278Z,11.73
2023-04-23T22:00:02.580Z,11.75
2023-04-23T22:02:04.736Z,11.77
2023-04-23T22:04:05.147Z,11.73
2023-04-23T22:06:05.589Z,11.72
2023-04-23T22:08:05.915Z,11.72
2023-04-23T22:10:06.254Z,11.68
2023-04-23T22:12:06.887Z,11.66
2023-04-23T22:14:07.394Z,11.66
2023-04-23T22:16:20.299Z,11.60
2023-04-23T22:18:13.014Z,11.55
2023-04-23T22:20:13.526Z,11.57
2023-04-23T22:22:14.096Z,11.50
2023-04-23T22:24:14.457Z,11.45
2023-04-23T22:26:14.726Z,11.47
2023-04-23T22:28:15.102Z,11.45
2023-04-23T22:30:15.417Z,11.44
2023-04-23T22:32:15.843Z,11.37
2023-04-23T22:34:16.201Z,11.35
2023-04-23T22:36:16.543Z,11.35
2023-04-23T22:38:16.876Z,11.33
2023-04-23T22:40:17.191Z,11.26
2023-04-23T22:42:17.488Z,11.25
2023-04-23T22:44:17.902Z,11.25
2023-04-23T22:46:18.374Z,11.22
2023-04-23T22:48:18.761Z,11.25
2023-04-23T22:50:19.189Z,11.18
2023-04-23T22:52:19.463Z,11.19
2023-04-23T22:54:19.728Z,11.23
2023-04-23T22:56:20.076Z,11.22
2023-04-23T22:58:20.390Z,11.23
2023-04-23T23:00:20.686Z,11.25
2023-04-23T23:02:21.099Z,11.23
2023-04-23T23:04:21.530Z,11.18
2023-04-23T23:06:22.018Z,11.12
2023-04-23T23:08:22.448Z,11.14
2023-04-23T23:10:23.185Z,11.11
2023-04-23T23:12:23.469Z,11.14
2023-04-23T23:14:23.772Z,11.11
2023-04-23T23:16:24.148Z,11.11
2023-04-23T23:18:24.506Z,11.12
2023-04-23T23:20:24.872Z,11.19
2023-04-23T23:22:25.343Z,11.29
2023-04-23T23:24:25.655Z,11.29
2023-04-23T23:26:25.988Z,11.32
2023-04-23T23:28:26.297Z,11.35
2023-04-23T23:30:26.578Z,11.33
2023-04-23T23:32:26.995Z,11.36
2023-04-23T23:34:27.280Z,11.40
2023-04-23T23:36:27.629Z,11.41
2023-04-23T23:38:27.981Z,11.40
2023-04-23T23:40:28.535Z,11.40
2023-04-23T23:42:28.877Z,11.36
2023-04-23T23:44:29.212Z,11.36
2023-04-23T23:46:29.622Z,11.35
2023-04-23T23:48:29.904Z,11.33
2023-04-23T23:50:30.209Z,11.32
2023-04-23T23:52:30.574Z,11.29
2023-04-23T23:54:30.855Z,11.26
2023-04-23T23:56:31.271Z,11.26
2023-04-23T23:58:31.828Z,11.29
